Time;durP1;ratioP1;P1;durP2;ratioP2;P2;SDS_P1;SDS_P2;PMS_P1;PMS_P2;Temp;Humidity;BMP_temperature;BMP_pressure;BME280_temperature;BME280_humidity;BME280_pressure;Samples;Min_cycle;Max_cycle;Signal;HPM_P1;HPM_P2
2021/08/12 11:40:29;;;;;;;;;;;;;;;25.86;49.78;101053.44;5118539;27;1238;-69
2021/08/12 11:42:56;;;;;;;;;;;;;;;25.91;49.67;101053.88;5103252;28;1259;-70
2021/08/12 11:45:23;;;;;;;;;;;;;;;25.91;49.41;101064.56;5103432;28;1452;-67
2021/08/12 11:47:57;;;;;;;;;;;;;;;25.92;49.68;101060.94;5092779;28;1176;-62
2021/08/12 11:50:27;;;;;;;;;;;;;;;25.88;49.32;101063.97;5100609;28;1299;-62
2021/08/12 11:52:54;;;;;;;;;;;;;;;25.88;48.94;101059.47;5102963;28;1185;-63
2021/08/12 11:55:22;;;;;;;;;;;;;;;25.81;50.38;101068.09;5100722;28;1251;-63
2021/08/12 11:57:52;;;;;;;;;;;;;;;25.71;50.07;101067.19;5103050;28;1274;-66
2021/08/12 12:00:20;;;;;;;;;;;;;;;25.84;49.72;101065.22;5091787;28;1910;-65
2021/08/12 12:02:48;;;;;;;;;;;;;;;25.82;49.61;101070.66;5103343;28;1279;-67
2021/08/12 12:05:16;;;;;;;;;;;;;;;25.83;50.05;101058.16;5103602;28;1307;-66
2021/08/12 12:08:07;;;;;;;;;;;;;;;25.83;49.54;101060.84;5101411;28;1244;-64
2021/08/12 12:10:36;;;;;;;;;;;;;;;25.78;49.79;101063.88;5102788;28;1409;-67
2021/08/12 12:13:09;;;;;;;;;;;;;;;25.82;49.72;101068.00;5100577;28;1266;-70
2021/08/12 12:15:37;;;;;;;;;;;;;;;25.77;49.60;101080.03;5101376;28;1677;-68
2021/08/12 12:18:04;;;;;;;;;;;;;;;25.85;48.94;101089.09;5102712;28;1157;-70
2021/08/12 12:20:31;;;;;;;;;;;;;;;25.82;48.58;101085.81;5103932;28;1914;-70
2021/08/12 12:22:59;;;;;;;;;;;;;;;25.77;48.10;101082.69;5102769;28;1298;-69
2021/08/12 12:25:27;;;;;;;;;;;;;;;25.78;47.96;101095.03;5103497;28;1275;-68
2021/08/12 12:27:57;;;;;;;;;;;;;;;25.71;47.59;101097.38;5102877;28;1255;-68
2021/08/12 12:30:25;;;;;;;;;;;;;;;25.71;47.77;101099.19;5099623;28;1207;-67
2021/08/12 12:33:03;;;;;;;;;;;;;;;25.83;48.29;101108.88;5104730;28;1196;-71
2021/08/12 12:35:33;;;;;;;;;;;;;;;25.93;48.49;101104.50;5090464;28;1271;-73
2021/08/12 12:38:00;;;;;;;;;;;;;;;25.96;48.63;101109.59;5092830;28;1267;-73
2021/08/12 12:40:32;;;;;;;;;;;;;;;25.98;49.36;101108.47;5103096;28;1991;-73
2021/08/12 12:42:59;;;;;;;;;;;;;;;26.00;48.89;101108.34;5102698;28;1235;-74
2021/08/12 12:45:26;;;;;;;;;;;;;;;26.03;49.63;101116.94;5103132;28;1373;-75
2021/08/12 12:48:04;;;;;;;;;;;;;;;26.03;49.33;101119.63;5102577;28;1286;-75
2021/08/12 12:50:39;;;;;;;;;;;;;;;26.06;49.51;101118.50;5095713;28;1402;-74
2021/08/12 12:53:06;;;;;;;;;;;;;;;26.04;49.35;101124.00;5086752;28;1761;-72
2021/08/12 12:55:33;;;;;;;;;;;;;;;26.06;49.18;101124.69;5088652;28;1271;-73
2021/08/12 12:58:21;;;;;;;;;;;;;;;26.13;49.30;101122.38;5087368;28;1209;-72
2021/08/12 13:01:00;;;;;;;;;;;;;;;26.17;48.94;101118.53;5086043;28;1216;-75
2021/08/12 13:03:27;;;;;;;;;;;;;;;26.14;48.92;101116.09;5085670;28;1260;-74
2021/08/12 13:05:54;;;;;;;;;;;;;;;26.13;48.76;101119.72;5086511;28;1333;-73
2021/08/12 13:08:21;;;;;;;;;;;;;;;26.12;49.27;101112.66;5085930;28;1278;-74
2021/08/12 13:11:05;;;;;;;;;;;;;;;26.14;49.14;101117.91;5116474;27;1315;-73
2021/08/12 13:13:32;;;;;;;;;;;;;;;26.15;48.91;101109.78;5087092;28;1217;-73
2021/08/12 13:15:59;;;;;;;;;;;;;;;26.15;48.59;101115.13;5089266;28;1383;-74
2021/08/12 13:18:45;;;;;;;;;;;;;;;26.16;48.81;101114.16;5086112;28;1914;-74
2021/08/12 13:21:29;;;;;;;;;;;;;;;26.16;49.04;101106.16;5085783;28;1307;-74
2021/08/12 13:23:57;;;;;;;;;;;;;;;26.14;49.10;101107.22;5084736;28;1194;-67
2021/08/12 13:26:32;;;;;;;;;;;;;;;26.11;48.84;101102.97;5087329;28;1389;-71
2021/08/12 13:29:05;;;;;;;;;;;;;;;26.12;49.23;101104.66;5085629;28;1229;-74
2021/08/12 13:31:36;;;;;;;;;;;;;;;26.11;48.85;101097.66;5086866;28;1357;-74
2021/08/12 13:34:04;;;;;;;;;;;;;;;26.14;48.64;101102.72;5085484;28;1348;-74
2021/08/12 13:36:30;;;;;;;;;;;;;;;26.14;48.45;101105.41;5087202;28;1267;-71
2021/08/12 13:38:57;;;;;;;;;;;;;;;26.13;48.21;101105.50;5086854;28;1917;-72
2021/08/12 13:41:24;;;;;;;;;;;;;;;26.14;48.23;101097.38;5084254;28;1340;-75
2021/08/12 13:43:51;;;;;;;;;;;;;;;26.16;48.42;101097.28;5086405;28;1693;-74
2021/08/12 13:46:17;;;;;;;;;;;;;;;26.17;48.34;101090.97;5086624;28;1773;-71
2021/08/12 13:48:44;;;;;;;;;;;;;;;26.17;48.50;101089.16;5084082;28;1482;-72
2021/08/12 13:51:11;;;;;;;;;;;;;;;26.16;48.29;101090.13;5086750;28;1243;-71
2021/08/12 13:53:37;;;;;;;;;;;;;;;26.15;47.94;101091.09;5086631;28;1519;-73
2021/08/12 13:56:04;;;;;;;;;;;;;;;26.15;48.30;101096.44;5085623;28;1355;-71
2021/08/12 13:58:31;;;;;;;;;;;;;;;26.13;47.81;101090.34;5084964;28;1244;-68
2021/08/12 14:00:58;;;;;;;;;;;;;;;26.15;48.52;101099.09;5112472;27;1548;-70
2021/08/12 14:03:25;;;;;;;;;;;;;;;26.15;48.00;101099.09;5080712;28;1094;-70
2021/08/12 14:05:53;;;;;;;;;;;;;;;26.13;47.81;101087.69;5086384;28;1369;-70
2021/08/12 14:08:19;;;;;;;;;;;;;;;26.13;48.19;101097.50;5086683;28;1275;-69
2021/08/12 14:10:46;;;;;;;;;;;;;;;26.10;48.01;101098.59;5083030;28;1239;-69
2021/08/12 14:13:13;;;;;;;;;;;;;;;26.07;48.45;101093.53;5077599;28;1280;-69
2021/08/12 14:15:39;;;;;;;;;;;;;;;26.08;48.37;101104.06;5085144;28;1303;-70
2021/08/12 14:18:06;;;;;;;;;;;;;;;26.11;48.43;101102.97;5082460;28;1354;-70
2021/08/12 14:20:33;;;;;;;;;;;;;;;26.11;47.94;101094.97;5085892;28;1995;-70
2021/08/12 14:23:04;;;;;;;;;;;;;;;26.18;47.89;101096.19;5086399;28;1271;-71
2021/08/12 14:25:30;;;;;;;;;;;;;;;26.16;47.87;101098.13;5077076;28;1420;-69
2021/08/12 14:27:57;;;;;;;;;;;;;;;26.17;48.05;101086.50;5076548;28;1252;-72
2021/08/12 14:30:24;;;;;;;;;;;;;;;26.17;48.03;101093.66;5086739;28;1294;-72
2021/08/12 14:32:50;;;;;;;;;;;;;;;26.14;48.03;101104.53;5077686;28;1287;-72
2021/08/12 14:35:18;;;;;;;;;;;;;;;26.16;48.05;101099.94;5075745;28;1307;-73
2021/08/12 14:37:45;;;;;;;;;;;;;;;26.24;48.25;101100.16;5075308;28;1233;-70
2021/08/12 14:40:12;;;;;;;;;;;;;;;26.20;48.16;101101.41;5074111;28;2040;-70
2021/08/12 14:42:38;;;;;;;;;;;;;;;26.19;48.45;101097.88;5076876;28;1121;-68
2021/08/12 14:45:05;;;;;;;;;;;;;;;26.20;48.01;101096.91;5086101;28;1378;-69
2021/08/12 14:47:32;;;;;;;;;;;;;;;26.20;48.32;101093.38;5086609;28;1295;-69
2021/08/12 14:49:59;;;;;;;;;;;;;;;26.26;48.50;101085.72;5085949;28;1307;-68
2021/08/12 14:52:25;;;;;;;;;;;;;;;26.22;48.31;101086.94;5080517;28;1477;-71
2021/08/12 14:54:52;;;;;;;;;;;;;;;26.23;48.88;101079.78;5086074;28;1417;-72
2021/08/12 14:57:19;;;;;;;;;;;;;;;26.20;48.39;101080.91;5074524;28;1244;-68
2021/08/12 14:59:45;;;;;;;;;;;;;;;26.22;49.28;101073.59;5085745;28;2005;-71
2021/08/12 15:02:12;;;;;;;;;;;;;;;26.25;49.25;101068.00;5076725;28;1212;-70
2021/08/12 15:04:39;;;;;;;;;;;;;;;26.26;48.97;101067.03;5084769;28;1299;-72
2021/08/12 15:07:08;;;;;;;;;;;;;;;26.28;48.62;101069.56;5083190;28;1248;-68
2021/08/12 15:09:34;;;;;;;;;;;;;;;26.23;48.51;101061.94;5099293;28;1280;-71
2021/08/12 15:12:01;;;;;;;;;;;;;;;26.26;49.12;101068.84;5106070;28;1267;-69
2021/08/12 15:14:28;;;;;;;;;;;;;;;26.26;48.49;101067.03;5088528;28;1090;-69
2021/08/12 15:16:55;;;;;;;;;;;;;;;26.21;49.19;101073.72;5105534;28;1283;-69
2021/08/12 15:19:21;;;;;;;;;;;;;;;26.22;48.65;101067.41;5106409;27;1913;-70
2021/08/12 15:21:48;;;;;;;;;;;;;;;26.27;49.11;101067.84;5105034;28;1346;-71
2021/08/12 15:24:15;;;;;;;;;;;;;;;26.29;48.58;101074.78;5104604;28;1406;-71
2021/08/12 15:26:44;;;;;;;;;;;;;;;26.27;48.63;101066.03;5105155;28;1403;-69
2021/08/12 15:29:10;;;;;;;;;;;;;;;26.24;48.31;101068.97;5103484;28;1283;-70
2021/08/12 15:31:37;;;;;;;;;;;;;;;26.22;48.51;101062.06;5105619;28;1326;-68
2021/08/12 15:34:04;;;;;;;;;;;;;;;26.25;48.48;101061.81;5106457;28;1275;-66
2021/08/12 15:36:30;;;;;;;;;;;;;;;26.26;49.10;101053.69;5103102;28;1304;-68
2021/08/12 15:38:57;;;;;;;;;;;;;;;26.35;48.58;101042.22;5108873;28;1161;-68
2021/08/12 15:41:24;;;;;;;;;;;;;;;26.33;48.54;101046.81;5105750;28;1235;-70
2021/08/12 15:43:50;;;;;;;;;;;;;;;26.31;48.54;101045.28;5106408;28;1051;-69
2021/08/12 15:46:17;;;;;;;;;;;;;;;26.30;49.07;101049.75;5107020;28;1231;-69
2021/08/12 15:48:44;;;;;;;;;;;;;;;26.32;48.78;101041.63;5106791;28;1104;-70
2021/08/12 15:51:14;;;;;;;;;;;;;;;26.34;48.49;101037.84;5105572;28;1524;-68
2021/08/12 15:53:42;;;;;;;;;;;;;;;26.32;48.71;101037.16;5118623;28;1671;-70
2021/08/12 15:56:09;;;;;;;;;;;;;;;26.32;48.67;101042.47;5127480;27;1219;-71
2021/08/12 15:58:35;;;;;;;;;;;;;;;26.30;48.86;101044.41;5126468;28;1092;-68
2021/08/12 16:01:02;;;;;;;;;;;;;;;26.30;49.04;101047.09;5124518;27;1980;-68
2021/08/12 16:03:29;;;;;;;;;;;;;;;26.33;49.25;101038.81;5105597;28;1024;-72
2021/08/12 16:05:56;;;;;;;;;;;;;;;26.30;49.16;101035.56;5106587;28;1250;-71
2021/08/12 16:08:23;;;;;;;;;;;;;;;26.34;49.13;101035.19;5105445;28;1665;-71
2021/08/12 16:10:50;;;;;;;;;;;;;;;26.33;48.62;101024.59;5106949;28;1268;-67
2021/08/12 16:13:18;;;;;;;;;;;;;;;26.33;48.66;101028.13;5088914;28;1113;-68
2021/08/12 16:15:44;;;;;;;;;;;;;;;26.32;49.46;101033.63;5107026;28;1220;-70
2021/08/12 16:18:11;;;;;;;;;;;;;;;26.39;51.42;101032.97;5107052;28;1091;-70
2021/08/12 16:20:38;;;;;;;;;;;;;;;26.45;50.16;101037.78;5106705;28;1986;-69
2021/08/12 16:23:05;;;;;;;;;;;;;;;26.47;50.39;101037.66;5106804;28;1066;-69
2021/08/12 16:25:32;;;;;;;;;;;;;;;26.50;51.58;101030.25;5107559;28;1285;-68
2021/08/12 16:27:58;;;;;;;;;;;;;;;26.53;51.71;101027.31;5110713;28;1147;-68
2021/08/12 16:30:25;;;;;;;;;;;;;;;26.56;52.33;101023.53;5110530;28;1333;-69
2021/08/12 16:32:51;;;;;;;;;;;;;;;26.58;53.09;101014.41;5110514;28;1182;-67
2021/08/12 16:35:19;;;;;;;;;;;;;;;26.60;53.18;101015.09;5110778;28;1239;-69
2021/08/12 16:37:46;;;;;;;;;;;;;;;26.63;53.59;101015.84;5110531;28;841;-70
2021/08/12 16:40:13;;;;;;;;;;;;;;;26.63;53.09;101013.16;5110146;28;1946;-70
2021/08/12 16:42:41;;;;;;;;;;;;;;;26.63;53.34;101004.16;5110454;28;819;-69
2021/08/12 16:45:08;;;;;;;;;;;;;;;26.65;53.32;101003.19;5110537;28;1310;-70
2021/08/12 16:47:40;;;;;;;;;;;;;;;26.65;53.15;100992.50;5110266;28;845;-70
2021/08/12 16:50:07;;;;;;;;;;;;;;;26.66;53.16;101002.22;5109788;28;1260;-70
2021/08/12 16:52:34;;;;;;;;;;;;;;;26.67;52.98;101003.88;5110469;28;1711;-70
2021/08/12 16:55:00;;;;;;;;;;;;;;;26.67;53.01;100994.03;5110220;28;1369;-69
2021/08/12 16:57:33;;;;;;;;;;;;;;;26.63;53.34;100977.44;5110283;28;1082;-67
2021/08/12 17:00:01;;;;;;;;;;;;;;;26.68;52.93;100990.41;5110336;28;1978;-68
2021/08/12 17:02:27;;;;;;;;;;;;;;;26.70;52.80;101000.94;5109561;28;1067;-68
2021/08/12 17:04:54;;;;;;;;;;;;;;;26.68;53.22;101003.75;5110189;28;1255;-69
2021/08/12 17:07:21;;;;;;;;;;;;;;;26.66;53.18;100980.84;5091845;28;979;-68
2021/08/12 17:09:47;;;;;;;;;;;;;;;26.69;52.79;100986.72;5109840;28;1285;-69
2021/08/12 17:12:14;;;;;;;;;;;;;;;26.70;52.91;100980.41;5109988;28;1039;-69
2021/08/12 17:14:41;;;;;;;;;;;;;;;26.73;52.70;101006.88;5109453;28;1079;-70
2021/08/12 17:17:08;;;;;;;;;;;;;;;26.72;52.96;101013.19;5109327;28;1275;-69
2021/08/12 17:19:34;;;;;;;;;;;;;;;26.72;52.78;101010.50;5110012;28;1906;-68
2021/08/12 17:22:01;;;;;;;;;;;;;;;26.73;52.80;101006.03;5109610;28;1216;-69
2021/08/12 17:24:28;;;;;;;;;;;;;;;26.74;52.85;100995.22;5109878;28;1084;-68
2021/08/12 17:26:55;;;;;;;;;;;;;;;26.76;52.77;100979.03;5109846;28;1380;-68
2021/08/12 17:29:21;;;;;;;;;;;;;;;26.73;52.75;100988.16;5109838;28;1054;-68
2021/08/12 17:31:48;;;;;;;;;;;;;;;26.74;52.69;101008.59;5109346;28;1315;-68
2021/08/12 17:34:15;;;;;;;;;;;;;;;26.74;53.09;101007.72;5109780;28;1001;-68
2021/08/12 17:36:41;;;;;;;;;;;;;;;26.76;52.77;101008.44;5109718;28;1334;-68
2021/08/12 17:39:08;;;;;;;;;;;;;;;26.75;52.72;100994.22;5109286;28;1371;-68
2021/08/12 17:41:35;;;;;;;;;;;;;;;26.75;52.54;100996.88;5107930;28;1913;-68
2021/08/12 17:44:02;;;;;;;;;;;;;;;26.74;52.97;100989.03;5108851;28;1070;-68
2021/08/12 17:46:48;;;;;;;;;;;;;;;26.78;53.14;100999.28;5109139;28;1259;-67
2021/08/12 17:49:15;;;;;;;;;;;;;;;26.78;53.08;100991.28;5108509;28;1492;-67
2021/08/12 17:51:42;;;;;;;;;;;;;;;26.79;53.68;101003.66;5108711;28;1711;-64
2021/08/12 17:54:08;;;;;;;;;;;;;;;26.81;53.60;100998.25;5108741;28;1100;-66
2021/08/12 17:56:35;;;;;;;;;;;;;;;26.87;53.53;101000.38;5108845;28;1196;-65
2021/08/12 17:59:03;;;;;;;;;;;;;;;26.92;54.16;101004.34;5106355;28;1759;-68
2021/08/12 18:01:30;;;;;;;;;;;;;;;26.91;53.88;101012.47;5109994;27;1977;-67
2021/08/12 18:03:56;;;;;;;;;;;;;;;26.91;54.43;101007.97;5089665;28;1692;-66
2021/08/12 18:06:23;;;;;;;;;;;;;;;26.91;53.54;101012.47;5108393;28;1520;-64
2021/08/12 18:08:50;;;;;;;;;;;;;;;26.95;54.29;101014.75;5107882;28;1338;-64
2021/08/12 18:11:17;;;;;;;;;;;;;;;26.96;54.69;101020.97;5115580;27;1318;-64
2021/08/12 18:13:45;;;;;;;;;;;;;;;26.89;54.45;101017.13;5129544;27;1047;-67
2021/08/12 18:16:13;;;;;;;;;;;;;;;26.93;55.26;101024.72;5128665;27;1345;-63
2021/08/12 18:18:40;;;;;;;;;;;;;;;26.98;56.25;101030.53;5128051;27;1052;-66
2021/08/12 18:21:07;;;;;;;;;;;;;;;26.97;57.18;101039.53;5110764;27;1908;-66
2021/08/12 18:23:33;;;;;;;;;;;;;;;26.93;57.07;101031.91;5129179;27;1066;-67
2021/08/12 18:26:00;;;;;;;;;;;;;;;26.90;57.37;101032.19;5129829;27;1338;-69
2021/08/12 18:28:28;;;;;;;;;;;;;;;26.93;57.06;101018.56;5130164;27;1010;-67
2021/08/12 18:30:55;;;;;;;;;;;;;;;26.95;59.05;101022.78;5101295;28;1485;-69
2021/08/12 18:33:24;;;;;;;;;;;;;;;26.96;58.86;101031.66;5091440;28;1048;-68
2021/08/12 18:35:52;;;;;;;;;;;;;;;26.93;58.16;101031.91;5106884;28;1533;-67
2021/08/12 18:38:18;;;;;;;;;;;;;;;26.96;57.75;101023.63;5107772;28;1611;-67
2021/08/12 18:40:45;;;;;;;;;;;;;;;26.95;58.59;101022.78;5090107;28;1906;-70
2021/08/12 18:43:12;;;;;;;;;;;;;;;26.96;56.74;101020.97;5108561;28;1088;-68
2021/08/12 18:45:38;;;;;;;;;;;;;;;26.88;57.11;101028.78;5108514;28;1271;-68
2021/08/12 18:48:05;;;;;;;;;;;;;;;26.80;56.38;101028.59;5107370;28;1509;-67
2021/08/12 18:50:31;;;;;;;;;;;;;;;26.75;55.61;101028.13;5108508;28;1287;-68
2021/08/12 18:52:58;;;;;;;;;;;;;;;26.71;55.20;101026.69;5107886;28;1616;-68
2021/08/12 18:55:25;;;;;;;;;;;;;;;26.68;54.73;101022.47;5090520;28;1377;-67
2021/08/12 18:57:51;;;;;;;;;;;;;;;26.65;54.25;101016.53;5108577;28;746;-69
2021/08/12 19:00:19;;;;;;;;;;;;;;;26.61;54.05;101026.63;5108443;28;1992;-68
2021/08/12 19:02:45;;;;;;;;;;;;;;;26.60;53.88;101040.97;5108338;28;854;-68
2021/08/12 19:05:12;;;;;;;;;;;;;;;26.60;53.52;101040.97;5124060;27;1386;-67
2021/08/12 19:07:39;;;;;;;;;;;;;;;26.57;53.52;101047.41;5108294;28;1086;-67
2021/08/12 19:10:06;;;;;;;;;;;;;;;26.55;53.64;101049.38;5107930;28;1321;-68
2021/08/12 19:12:33;;;;;;;;;;;;;;;26.57;54.13;101058.09;5089561;28;1379;-66
2021/08/12 19:14:59;;;;;;;;;;;;;;;26.56;53.62;101060.94;5109236;28;1381;-66
2021/08/12 19:17:26;;;;;;;;;;;;;;;26.63;54.20;101063.94;5108500;28;1530;-64
2021/08/12 19:19:53;;;;;;;;;;;;;;;26.65;53.87;101070.81;5107228;28;1306;-65
2021/08/12 19:22:20;;;;;;;;;;;;;;;26.67;54.27;101076.03;5088310;28;1990;-65
2021/08/12 19:24:46;;;;;;;;;;;;;;;26.64;54.42;101077.13;5106627;28;1297;-65
2021/08/12 19:27:13;;;;;;;;;;;;;;;26.64;54.78;101069.13;5106610;28;1263;-66
2021/08/12 19:29:40;;;;;;;;;;;;;;;26.65;54.18;101069.97;5106634;28;1228;-65
2021/08/12 19:32:07;;;;;;;;;;;;;;;26.71;54.42;101077.47;5106119;28;1288;-66
2021/08/12 19:34:33;;;;;;;;;;;;;;;26.74;53.79;101070.03;5106903;28;1212;-64
2021/08/12 19:37:00;;;;;;;;;;;;;;;26.73;53.36;101063.00;5106848;28;1229;-65
2021/08/12 19:39:27;;;;;;;;;;;;;;;26.68;54.00;101069.72;5105564;28;1308;-66
2021/08/12 19:41:54;;;;;;;;;;;;;;;26.69;53.73;101082.09;5087711;28;1914;-63
2021/08/12 19:44:21;;;;;;;;;;;;;;;26.71;53.51;101090.81;5106842;28;1152;-65
2021/08/12 19:46:47;;;;;;;;;;;;;;;26.70;53.70;101100.66;5105811;28;1275;-63
2021/08/12 19:49:14;;;;;;;;;;;;;;;26.71;53.64;101091.69;5086712;28;1278;-65
2021/08/12 19:51:41;;;;;;;;;;;;;;;26.73;53.67;101086.19;5087470;28;1383;-64
2021/08/12 19:54:08;;;;;;;;;;;;;;;26.76;54.20;101091.28;5106822;28;1220;-65
2021/08/12 19:56:34;;;;;;;;;;;;;;;26.75;54.32;101092.28;5106298;28;1275;-64
2021/08/12 19:59:01;;;;;;;;;;;;;;;26.67;53.83;101095.59;5107420;28;1256;-64
2021/08/12 20:01:28;;;;;;;;;;;;;;;26.67;54.05;101106.28;5109489;28;1898;-64
2021/08/12 20:03:55;;;;;;;;;;;;;;;26.68;53.79;101115.13;5092603;28;1649;-64
2021/08/12 20:06:21;;;;;;;;;;;;;;;26.65;53.99;101113.56;5111335;28;1291;-66
2021/08/12 20:08:48;;;;;;;;;;;;;;;26.66;53.97;101112.59;5111388;28;1243;-68
2021/08/12 20:11:15;;;;;;;;;;;;;;;26.65;53.91;101112.72;5111202;28;1339;-67
2021/08/12 20:13:42;;;;;;;;;;;;;;;26.63;54.26;101121.72;5111083;28;1248;-65
2021/08/12 20:16:08;;;;;;;;;;;;;;;26.66;53.73;101131.28;5108612;28;1724;-67
2021/08/12 20:18:35;;;;;;;;;;;;;;;26.65;53.56;101136.78;5109741;28;1445;-66
2021/08/12 20:21:02;;;;;;;;;;;;;;;26.65;53.52;101142.13;5108885;28;2006;-67
2021/08/12 20:23:29;;;;;;;;;;;;;;;26.65;53.95;101145.66;5108465;28;1201;-68
2021/08/12 20:25:56;;;;;;;;;;;;;;;26.59;53.78;101149.69;5108580;28;1338;-67
2021/08/12 20:28:22;;;;;;;;;;;;;;;26.55;53.49;101160.75;5108756;28;1337;-67
2021/08/12 20:30:49;;;;;;;;;;;;;;;26.53;53.35;101155.53;5090406;28;1255;-66
2021/08/12 20:33:16;;;;;;;;;;;;;;;26.55;53.41;101161.59;5108240;28;1608;-67
2021/08/12 20:35:43;;;;;;;;;;;;;;;26.69;54.60;101165.75;5107896;28;1371;-68
2021/08/12 20:38:09;;;;;;;;;;;;;;;26.82;55.39;101168.28;5104985;28;1277;-68
2021/08/12 20:40:36;;;;;;;;;;;;;;;26.87;57.08;101158.91;5109933;28;1982;-68
2021/08/12 20:43:03;;;;;;;;;;;;;;;26.85;55.31;101162.69;5109020;28;1608;-68
2021/08/12 20:45:30;;;;;;;;;;;;;;;26.85;55.90;101162.69;5110439;28;1316;-68
2021/08/12 20:47:57;;;;;;;;;;;;;;;26.85;57.03;101168.88;5110432;28;1072;-68
2021/08/12 20:50:27;;;;;;;;;;;;;;;26.85;57.91;101158.19;5110616;28;1357;-68
2021/08/12 20:52:54;;;;;;;;;;;;;;;26.87;55.65;101166.09;5111280;28;1144;-68
2021/08/12 20:55:21;;;;;;;;;;;;;;;26.85;57.42;101160.00;5111840;28;1349;-68
2021/08/12 20:57:47;;;;;;;;;;;;;;;26.91;56.77;101164.84;5112698;27;992;-68
2021/08/12 21:00:15;;;;;;;;;;;;;;;26.90;60.18;101179.19;5089907;28;1664;-68
2021/08/12 21:02:42;;;;;;;;;;;;;;;26.90;57.99;101176.53;5105847;27;1917;-67
2021/08/12 21:05:09;;;;;;;;;;;;;;;26.89;58.32;101183.69;5109152;27;1486;-66
2021/08/12 21:07:37;;;;;;;;;;;;;;;26.91;60.31;101181.72;5071249;28;1715;-67
2021/08/12 21:10:05;;;;;;;;;;;;;;;26.94;60.28;101173.44;5070767;28;1669;-66
2021/08/12 21:12:32;;;;;;;;;;;;;;;26.92;57.91;101175.41;5124597;27;1347;-67
2021/08/12 21:14:59;;;;;;;;;;;;;;;26.91;59.92;101184.41;5128450;27;1284;-67
2021/08/12 21:17:26;;;;;;;;;;;;;;;26.94;62.53;101169.94;5130135;27;1137;-66
2021/08/12 21:19:52;;;;;;;;;;;;;;;26.93;62.12;101176.28;5115202;27;1405;-67
2021/08/12 21:22:19;;;;;;;;;;;;;;;26.92;61.66;101187.94;5109696;28;1914;-67
2021/08/12 21:24:46;;;;;;;;;;;;;;;26.92;60.28;101183.44;5109196;28;1287;-68
2021/08/12 21:27:13;;;;;;;;;;;;;;;26.94;61.37;101177.94;5107650;28;1024;-68
2021/08/12 21:29:39;;;;;;;;;;;;;;;26.94;61.51;101177.94;5109167;28;1173;-68
2021/08/12 21:32:07;;;;;;;;;;;;;;;26.93;61.38;101181.63;5123703;27;1974;-68
2021/08/12 21:34:33;;;;;;;;;;;;;;;26.94;62.39;101176.13;5109817;27;1425;-67
2021/08/12 21:37:00;;;;;;;;;;;;;;;26.94;61.46;101188.63;5109300;28;1232;-67
2021/08/12 21:39:46;;;;;;;;;;;;;;;26.93;60.43;101189.63;5113289;27;1691;-67
2021/08/12 21:42:13;;;;;;;;;;;;;;;26.95;62.03;101185.00;5128652;27;1971;-67
2021/08/12 21:44:40;;;;;;;;;;;;;;;26.94;63.44;101188.63;5129470;27;1037;-68
2021/08/12 21:47:06;;;;;;;;;;;;;;;26.95;62.21;101187.66;5107405;27;1924;-68
2021/08/12 21:49:33;;;;;;;;;;;;;;;26.96;63.33;101184.03;5112110;27;969;-67
2021/08/12 21:52:00;;;;;;;;;;;;;;;26.95;60.52;101198.38;5130017;27;1329;-67
2021/08/12 21:54:27;;;;;;;;;;;;;;;26.97;62.65;101199.06;5129823;27;968;-67
2021/08/12 21:56:54;;;;;;;;;;;;;;;26.96;63.35;101197.41;5094379;27;1519;-67
2021/08/12 21:59:20;;;;;;;;;;;;;;;26.95;62.37;101195.69;5093366;27;1611;-67
2021/08/12 22:01:47;;;;;;;;;;;;;;;26.94;63.42;101183.28;5129438;27;1973;-66
2021/08/12 22:04:14;;;;;;;;;;;;;;;26.92;61.86;101190.59;5114925;27;1695;-67
2021/08/12 22:06:41;;;;;;;;;;;;;;;26.92;61.02;101193.28;5107509;28;1290;-68
2021/08/12 22:09:07;;;;;;;;;;;;;;;26.91;58.67;101194.25;5109960;27;1540;-67
2021/08/12 22:11:34;;;;;;;;;;;;;;;26.90;57.49;101192.56;5111148;27;1189;-67
2021/08/12 22:14:01;;;;;;;;;;;;;;;26.89;57.53;101201.56;5108668;28;1491;-67
2021/08/12 22:16:28;;;;;;;;;;;;;;;26.86;56.96;101202.66;5112954;27;1326;-67
2021/08/12 22:18:54;;;;;;;;;;;;;;;26.86;57.03;101191.97;5108330;28;1071;-66
2021/08/12 22:21:21;;;;;;;;;;;;;;;26.86;57.38;101204.47;5125961;27;1975;-66
2021/08/12 22:23:48;;;;;;;;;;;;;;;26.87;56.91;101216.88;5127629;27;1119;-67
2021/08/12 22:26:18;;;;;;;;;;;;;;;26.87;56.16;101214.22;5110373;27;1334;-66
2021/08/12 22:28:45;;;;;;;;;;;;;;;26.88;56.17;101219.41;5110274;27;1082;-67
2021/08/12 22:31:12;;;;;;;;;;;;;;;26.84;56.17;101203.78;5128418;27;1208;-68
2021/08/12 22:33:39;;;;;;;;;;;;;;;26.85;56.65;101198.28;5102871;28;1110;-67
2021/08/12 22:36:06;;;;;;;;;;;;;;;26.84;59.33;101214.47;5124441;27;1239;-68
2021/08/12 22:38:33;;;;;;;;;;;;;;;26.84;61.29;101209.94;5123301;27;1651;-65
2021/08/12 22:40:59;;;;;;;;;;;;;;;26.87;62.03;101198.16;5123125;27;1988;-68
2021/08/12 22:43:26;;;;;;;;;;;;;;;26.91;60.29;101204.94;5092775;27;1282;-67
2021/08/12 22:45:53;;;;;;;;;;;;;;;26.91;61.41;101207.59;5109871;27;1409;-68
2021/08/12 22:48:20;;;;;;;;;;;;;;;26.97;62.49;101225.81;5125554;27;1058;-69
2021/08/12 22:50:47;;;;;;;;;;;;;;;26.95;61.56;101222.41;5103709;27;1322;-68
2021/08/12 22:53:16;;;;;;;;;;;;;;;26.94;63.12;101226.06;5129544;27;1158;-68
2021/08/12 22:55:42;;;;;;;;;;;;;;;26.90;60.88;101230.00;5117792;27;1485;-69
2021/08/12 22:58:09;;;;;;;;;;;;;;;26.90;61.65;101230.00;5109188;28;1131;-68
2021/08/12 23:00:36;;;;;;;;;;;;;;;26.88;60.99;101229.25;5120389;27;1302;-69
2021/08/12 23:03:03;;;;;;;;;;;;;;;26.85;59.94;101226.84;5114650;27;1979;-69
2021/08/12 23:05:30;;;;;;;;;;;;;;;26.86;58.89;101239.22;5108800;28;1267;-68
2021/08/12 23:07:56;;;;;;;;;;;;;;;26.82;57.00;101245.81;5109445;28;1046;-68
2021/08/12 23:10:23;;;;;;;;;;;;;;;26.79;57.19;101244.19;5109159;28;1203;-68
2021/08/12 23:12:50;;;;;;;;;;;;;;;26.78;56.75;101247.84;5109369;28;996;-68
2021/08/12 23:15:23;;;;;;;;;;;;;;;26.76;57.43;101247.13;5107555;28;1278;-68
2021/08/12 23:17:51;;;;;;;;;;;;;;;26.78;58.22;101255.03;5109084;28;996;-68
2021/08/12 23:20:18;;;;;;;;;;;;;;;26.75;58.55;101256.13;5117670;27;1345;-68
2021/08/12 23:22:44;;;;;;;;;;;;;;;26.76;59.13;101240.94;5110813;27;1905;-68
2021/08/12 23:25:11;;;;;;;;;;;;;;;26.76;60.15;101244.47;5110971;28;1369;-68
2021/08/12 23:27:38;;;;;;;;;;;;;;;26.76;60.84;101254.28;5129610;27;924;-68
2021/08/12 23:30:05;;;;;;;;;;;;;;;26.76;60.60;101241.78;5129454;27;1322;-68
2021/08/12 23:32:32;;;;;;;;;;;;;;;26.78;60.06;101228.31;5109978;27;1232;-68
2021/08/12 23:34:59;;;;;;;;;;;;;;;26.78;60.86;101231.81;5129163;27;1354;-69
2021/08/12 23:37:25;;;;;;;;;;;;;;;26.78;60.64;101231.81;5110860;27;833;-70
2021/08/12 23:39:52;;;;;;;;;;;;;;;26.79;60.73;101232.66;5116301;28;1425;-68
2021/08/12 23:42:19;;;;;;;;;;;;;;;26.76;60.33;101239.13;5108453;28;1906;-67
2021/08/12 23:44:45;;;;;;;;;;;;;;;26.77;61.40;101242.63;5107025;28;1180;-67
2021/08/12 23:47:12;;;;;;;;;;;;;;;26.78;61.21;101247.84;5108309;28;1142;-67
2021/08/12 23:49:39;;;;;;;;;;;;;;;26.74;61.40;101253.59;5108644;28;1248;-68
2021/08/12 23:52:06;;;;;;;;;;;;;;;26.71;62.10;101235.13;5108432;28;1290;-68
2021/08/12 23:54:32;;;;;;;;;;;;;;;26.73;61.90;101231.34;5108615;28;995;-69
2021/08/12 23:56:59;;;;;;;;;;;;;;;26.72;62.94;101251.03;5108677;28;1238;-68
2021/08/12 23:59:26;;;;;;;;;;;;;;;26.68;63.91;101251.41;5108915;28;1109;-68
